createdAt,value
2018-10-17T00:00:31.791Z,91.90
2018-10-17T00:02:59.518Z,91.90
2018-10-17T00:05:27.117Z,91.80
2018-10-17T00:07:54.840Z,91.80
2018-10-17T00:10:22.515Z,92.10
2018-10-17T00:12:50.254Z,92.10
2018-10-17T00:15:18.139Z,92.50
2018-10-17T00:17:46.285Z,92.70
2018-10-17T00:20:13.981Z,92.70
2018-10-17T00:22:41.617Z,92.60
2018-10-17T00:25:09.562Z,92.40
2018-10-17T00:27:37.322Z,92.30
2018-10-17T00:30:08.641Z,92.50
2018-10-17T00:32:36.306Z,92.70
2018-10-17T00:35:05.151Z,93.00
2018-10-17T00:37:33.114Z,93.10
2018-10-17T00:40:00.765Z,93.20
2018-10-17T00:42:28.475Z,93.60
2018-10-17T00:44:56.047Z,93.70
2018-10-17T00:47:23.826Z,94.00
2018-10-17T00:49:52.100Z,94.00
2018-10-17T00:52:19.842Z,93.80
2018-10-17T00:54:47.485Z,93.70
2018-10-17T00:57:15.256Z,93.10
2018-10-17T00:59:42.990Z,92.80
2018-10-17T01:02:10.762Z,92.50
2018-10-17T01:04:38.423Z,93.00
2018-10-17T01:07:06.192Z,93.30
2018-10-17T01:09:33.802Z,94.00
2018-10-17T01:12:01.920Z,94.20
2018-10-17T01:14:29.567Z,94.10
2018-10-17T01:16:57.267Z,94.30
2018-10-17T01:19:24.913Z,94.50
2018-10-17T01:21:52.899Z,94.30
2018-10-17T01:24:20.835Z,94.40
2018-10-17T01:26:48.671Z,94.40
2018-10-17T01:29:16.421Z,94.60
2018-10-17T01:31:44.128Z,94.50
2018-10-17T01:34:12.143Z,94.80
2018-10-17T01:36:40.080Z,95.10
2018-10-17T01:39:09.225Z,95.20
2018-10-17T01:41:36.960Z,95.10
2018-10-17T01:44:05.370Z,94.80
2018-10-17T01:46:33.504Z,94.40
2018-10-17T01:49:01.287Z,94.90
2018-10-17T01:51:28.997Z,94.90
2018-10-17T01:53:56.634Z,94.90
2018-10-17T01:56:24.269Z,95.00
2018-10-17T01:58:52.116Z,95.20
2018-10-17T02:01:19.774Z,95.40
2018-10-17T02:03:47.404Z,95.00
2018-10-17T02:06:15.107Z,94.80
2018-10-17T02:08:42.981Z,95.00
2018-10-17T02:11:10.737Z,96.90
2018-10-17T02:13:38.376Z,96.40
2018-10-17T02:16:06.103Z,95.60
2018-10-17T02:18:34.037Z,95.20
2018-10-17T02:21:01.726Z,94.30
2018-10-17T02:23:29.856Z,94.10
2018-10-17T02:25:57.692Z,94.10
2018-10-17T02:28:25.767Z,94.40
2018-10-17T02:30:54.134Z,94.90
2018-10-17T02:33:21.732Z,95.00
2018-10-17T02:35:49.399Z,94.80
2018-10-17T02:38:17.185Z,95.00
2018-10-17T02:40:45.217Z,94.80
2018-10-17T02:43:13.407Z,95.00
2018-10-17T02:45:40.985Z,95.20
2018-10-17T02:48:08.787Z,95.20
2018-10-17T02:50:36.542Z,95.50
2018-10-17T02:53:04.983Z,95.80
2018-10-17T02:55:32.869Z,96.30
2018-10-17T02:58:00.502Z,96.50
2018-10-17T03:00:28.178Z,96.50
2018-10-17T03:02:55.994Z,96.30
2018-10-17T03:05:23.888Z,96.70
2018-10-17T03:07:51.597Z,96.50
2018-10-17T03:10:19.419Z,96.80
2018-10-17T03:12:47.248Z,96.40
2018-10-17T03:15:14.890Z,96.80
2018-10-17T03:17:42.557Z,97.20
2018-10-17T03:20:10.918Z,97.70
2018-10-17T03:22:38.613Z,97.60
2018-10-17T03:25:06.843Z,97.90
2018-10-17T03:27:34.687Z,98.00
2018-10-17T03:30:02.351Z,98.30
2018-10-17T03:32:30.012Z,97.80
2018-10-17T03:34:57.965Z,97.90
2018-10-17T03:37:25.829Z,98.10
2018-10-17T03:39:53.728Z,97.90
2018-10-17T03:42:21.413Z,97.90
2018-10-17T03:44:49.248Z,97.70
2018-10-17T03:47:17.061Z,96.80
2018-10-17T03:49:44.784Z,96.50
2018-10-17T03:52:12.631Z,95.80
2018-10-17T03:54:40.301Z,95.60
2018-10-17T03:57:07.952Z,95.30
2018-10-17T03:59:35.733Z,95.20
2018-10-17T04:02:03.553Z,95.80
2018-10-17T04:04:31.189Z,96.20
2018-10-17T04:06:58.926Z,96.40
2018-10-17T04:09:27.580Z,96.20
2018-10-17T04:11:55.475Z,95.40
2018-10-17T04:14:23.112Z,94.30
2018-10-17T04:16:50.808Z,94.20
2018-10-17T04:19:18.481Z,95.50
2018-10-17T04:21:46.083Z,95.20
2018-10-17T04:24:14.345Z,94.60
2018-10-17T04:26:42.123Z,94.70
2018-10-17T04:29:09.835Z,94.30
2018-10-17T04:31:37.583Z,93.70
2018-10-17T04:34:05.279Z,93.40
2018-10-17T04:36:33.231Z,93.10
2018-10-17T04:39:00.889Z,93.30
2018-10-17T04:41:28.574Z,93.10
2018-10-17T04:43:56.175Z,93.70
2018-10-17T04:46:24.037Z,93.60
2018-10-17T04:48:51.909Z,93.90
2018-10-17T04:51:19.583Z,94.20
2018-10-17T04:53:47.262Z,94.40
2018-10-17T04:56:14.969Z,94.50
2018-10-17T04:58:42.755Z,94.40
2018-10-17T05:01:10.735Z,94.80
2018-10-17T05:03:38.697Z,94.90
2018-10-17T05:06:06.727Z,94.90
2018-10-17T05:08:35.435Z,95.10
2018-10-17T05:11:03.603Z,94.50
2018-10-17T05:13:31.728Z,94.00
2018-10-17T05:15:59.814Z,94.20
2018-10-17T05:18:27.925Z,94.50
2018-10-17T05:20:55.921Z,95.10
2018-10-17T05:23:23.930Z,95.30
2018-10-17T05:25:51.916Z,95.50
2018-10-17T05:28:19.924Z,95.60
2018-10-17T05:30:47.910Z,95.60
2018-10-17T05:33:15.999Z,95.40
2018-10-17T05:35:44.132Z,95.20
2018-10-17T05:38:12.088Z,94.70
2018-10-17T05:43:13.184Z,95.00
2018-10-17T05:45:40.806Z,94.50
2018-10-17T05:48:08.676Z,94.50
2018-10-17T05:50:36.305Z,94.90
2018-10-17T05:53:04.209Z,95.00
2018-10-17T05:55:31.913Z,95.10
2018-10-17T05:57:59.861Z,95.30
2018-10-17T06:00:27.518Z,95.10
2018-10-17T06:02:55.680Z,94.60
2018-10-17T06:05:23.332Z,94.70
2018-10-17T06:07:50.952Z,94.00
2018-10-17T06:10:18.710Z,94.40
2018-10-17T06:12:46.482Z,95.00
2018-10-17T06:15:14.100Z,96.40
2018-10-17T06:17:41.799Z,95.50
2018-10-17T06:20:10.617Z,96.20
2018-10-17T06:22:38.298Z,94.90
2018-10-17T06:25:07.258Z,96.20
2018-10-17T06:27:34.924Z,96.40
2018-10-17T06:30:02.562Z,96.00
2018-10-17T06:32:30.214Z,96.50
2018-10-17T06:34:57.969Z,95.90
2018-10-17T06:37:25.821Z,94.80
2018-10-17T06:39:53.481Z,94.70
2018-10-17T06:42:21.385Z,94.70
2018-10-17T06:44:49.001Z,93.70
2018-10-17T06:47:16.840Z,92.50
2018-10-17T06:49:44.357Z,92.00
2018-10-17T06:52:12.552Z,91.30
2018-10-17T06:54:40.246Z,92.10
2018-10-17T06:57:08.039Z,92.60
2018-10-17T06:59:36.316Z,93.50
2018-10-17T07:02:04.067Z,93.00
2018-10-17T07:04:31.685Z,92.70
2018-10-17T07:06:59.405Z,91.80
2018-10-17T07:09:27.461Z,91.90
2018-10-17T07:11:55.479Z,92.20
2018-10-17T07:14:23.200Z,92.10
2018-10-17T07:16:53.251Z,91.30
2018-10-17T07:19:20.757Z,90.30
2018-10-17T07:21:48.554Z,88.10
2018-10-17T07:24:16.217Z,86.30
2018-10-17T07:26:43.970Z,83.60
2018-10-17T07:29:11.704Z,82.70
2018-10-17T07:31:39.370Z,80.80
2018-10-17T07:34:07.003Z,77.60
2018-10-17T07:36:34.587Z,76.30
2018-10-17T07:39:02.614Z,74.10
2018-10-17T07:41:30.233Z,73.80
2018-10-17T07:43:57.845Z,73.50
2018-10-17T07:46:25.846Z,73.40
2018-10-17T07:48:53.637Z,73.10
2018-10-17T07:51:21.242Z,72.90
2018-10-17T07:53:49.016Z,73.50
2018-10-17T07:56:16.992Z,73.80
2018-10-17T07:58:44.716Z,74.30
2018-10-17T08:01:12.440Z,74.40
2018-10-17T08:03:40.319Z,74.10
2018-10-17T08:06:08.351Z,74.30
2018-10-17T08:08:36.107Z,75.00
2018-10-17T08:11:04.173Z,75.30
2018-10-17T08:13:31.948Z,75.80
2018-10-17T08:15:59.700Z,76.00
2018-10-17T08:18:27.358Z,76.40
2018-10-17T08:20:55.337Z,76.70
2018-10-17T08:23:23.225Z,76.80
2018-10-17T08:25:50.923Z,76.70
2018-10-17T08:28:18.749Z,76.70
2018-10-17T08:30:46.664Z,76.10
2018-10-17T08:33:14.593Z,75.90
2018-10-17T08:35:42.480Z,75.70
2018-10-17T08:38:10.632Z,76.00
2018-10-17T08:40:38.818Z,75.70
2018-10-17T08:43:07.164Z,75.20
2018-10-17T08:45:34.869Z,75.50
2018-10-17T08:48:02.603Z,75.60
2018-10-17T08:50:30.481Z,75.20
2018-10-17T08:52:58.447Z,74.10
2018-10-17T08:55:26.449Z,73.20
2018-10-17T08:57:54.370Z,71.50
2018-10-17T09:00:22.109Z,71.30
2018-10-17T09:02:49.902Z,70.80
2018-10-17T09:05:17.606Z,70.10
2018-10-17T09:07:45.399Z,70.00
2018-10-17T09:10:13.140Z,70.00
2018-10-17T09:12:40.923Z,69.00
2018-10-17T09:15:10.241Z,68.70
2018-10-17T09:17:39.372Z,67.60
2018-10-17T09:20:08.635Z,66.90
2018-10-17T09:22:36.903Z,65.40
2018-10-17T09:25:06.221Z,65.40
2018-10-17T09:27:34.640Z,64.60
2018-10-17T09:30:03.019Z,63.90
2018-10-17T09:32:31.039Z,63.60
2018-10-17T09:34:59.213Z,63.20
2018-10-17T09:37:27.476Z,62.70
2018-10-17T09:39:55.470Z,62.00
2018-10-17T09:42:24.221Z,62.50
2018-10-17T09:44:52.385Z,61.80
2018-10-17T09:47:20.460Z,60.90
2018-10-17T09:49:48.429Z,61.50
2018-10-17T09:52:16.789Z,62.00
2018-10-17T09:54:45.492Z,63.00
2018-10-17T09:57:13.773Z,63.00
2018-10-17T09:59:42.077Z,63.10
2018-10-17T10:02:10.678Z,63.30
2018-10-17T10:04:39.436Z,63.50
2018-10-17T10:07:08.663Z,63.90
2018-10-17T10:09:37.795Z,63.70
2018-10-17T10:12:06.329Z,62.40
2018-10-17T10:14:34.712Z,61.00
2018-10-17T10:17:03.410Z,60.70
2018-10-17T10:19:31.354Z,59.20
2018-10-17T10:21:59.344Z,58.50
2018-10-17T10:24:27.216Z,57.50
2018-10-17T10:26:55.063Z,57.60
2018-10-17T10:29:22.960Z,56.70
2018-10-17T10:31:51.319Z,55.40
2018-10-17T10:34:19.186Z,54.90
2018-10-17T10:36:47.264Z,53.60
2018-10-17T10:39:15.812Z,53.80
2018-10-17T10:41:44.438Z,54.60
2018-10-17T10:44:13.338Z,53.80
2018-10-17T10:46:41.989Z,53.60
2018-10-17T10:49:11.611Z,53.80
2018-10-17T10:51:41.162Z,53.00
2018-10-17T10:54:09.577Z,53.00
2018-10-17T10:56:37.668Z,53.20
2018-10-17T10:59:05.932Z,53.50
2018-10-17T11:01:33.888Z,53.20
2018-10-17T11:04:01.617Z,52.80
2018-10-17T11:06:29.223Z,52.10
2018-10-17T11:08:56.877Z,51.70
2018-10-17T11:11:24.548Z,51.10
2018-10-17T11:13:52.181Z,50.50
2018-10-17T11:16:19.921Z,50.40
2018-10-17T11:18:47.470Z,49.80
2018-10-17T11:21:15.103Z,49.50
2018-10-17T11:23:42.740Z,49.70
2018-10-17T11:26:10.813Z,49.70
2018-10-17T11:28:38.719Z,49.40
2018-10-17T11:31:06.773Z,48.80
2018-10-17T11:33:34.777Z,48.60
2018-10-17T11:36:02.851Z,48.30
2018-10-17T11:38:30.957Z,47.80
2018-10-17T11:40:59.030Z,47.60
2018-10-17T11:43:27.014Z,46.80
2018-10-17T11:45:55.065Z,46.80
2018-10-17T11:48:23.124Z,46.00
2018-10-17T11:50:51.409Z,45.50
2018-10-17T11:53:19.323Z,45.50
2018-10-17T11:55:47.296Z,45.70
2018-10-17T11:58:15.230Z,46.30
2018-10-17T12:00:43.197Z,46.10
2018-10-17T12:03:11.575Z,46.60
2018-10-17T12:05:39.856Z,45.80
2018-10-17T12:08:08.557Z,46.10
2018-10-17T12:10:36.509Z,45.40
2018-10-17T12:13:04.639Z,45.20
2018-10-17T12:15:42.714Z,45.10
2018-10-17T12:18:11.425Z,44.20
2018-10-17T12:20:39.343Z,43.90
2018-10-17T12:23:07.268Z,42.80
2018-10-17T12:25:35.318Z,43.00
2018-10-17T12:28:03.472Z,43.00
2018-10-17T12:30:31.299Z,42.30
2018-10-17T12:32:59.386Z,42.00
2018-10-17T12:35:27.333Z,42.10
2018-10-17T12:37:55.662Z,42.50
2018-10-17T12:40:23.735Z,42.90
2018-10-17T12:42:51.920Z,42.20
2018-10-17T12:45:19.956Z,42.00
2018-10-17T12:47:47.922Z,42.20
2018-10-17T12:50:15.877Z,41.60
2018-10-17T12:52:43.880Z,42.10
2018-10-17T12:55:12.038Z,42.10
2018-10-17T12:57:40.002Z,43.20
2018-10-17T13:00:09.585Z,42.80
2018-10-17T13:02:37.916Z,41.50
2018-10-17T13:05:07.084Z,41.70
2018-10-17T13:07:35.684Z,42.00
2018-10-17T13:10:03.855Z,41.40
2018-10-17T13:12:32.171Z,42.20
2018-10-17T13:15:00.143Z,42.20
2018-10-17T13:17:28.208Z,42.40
2018-10-17T13:19:56.215Z,42.50
2018-10-17T13:22:24.172Z,42.30
2018-10-17T13:24:52.208Z,41.60
2018-10-17T13:27:20.164Z,41.90
2018-10-17T13:29:48.273Z,42.30
2018-10-17T13:32:16.345Z,43.10
2018-10-17T13:34:44.353Z,43.10
2018-10-17T13:37:12.271Z,42.50
2018-10-17T13:39:42.240Z,42.10
2018-10-17T13:42:10.388Z,42.20
2018-10-17T13:44:38.381Z,42.40
2018-10-17T13:47:06.533Z,43.80
2018-10-17T13:49:34.600Z,41.90
2018-10-17T13:52:02.575Z,41.50
2018-10-17T13:54:30.677Z,41.80
2018-10-17T13:56:58.656Z,41.90
2018-10-17T13:59:26.548Z,42.00
2018-10-17T14:01:54.482Z,41.50
2018-10-17T14:04:22.519Z,41.90
2018-10-17T14:06:50.582Z,41.30
2018-10-17T14:09:18.680Z,40.40
2018-10-17T14:11:46.524Z,40.10
2018-10-17T14:14:14.510Z,40.20
2018-10-17T14:16:42.482Z,40.80
2018-10-17T14:19:10.506Z,40.10
2018-10-17T14:21:39.714Z,40.20
2018-10-17T14:24:07.982Z,40.70
2018-10-17T14:26:35.904Z,40.70
2018-10-17T14:29:03.999Z,41.10
2018-10-17T14:31:32.113Z,40.90
2018-10-17T14:34:05.336Z,41.00
2018-10-17T14:36:33.194Z,41.30
2018-10-17T14:39:01.251Z,41.20
2018-10-17T14:41:29.152Z,41.20
2018-10-17T14:43:57.216Z,41.50
2018-10-17T14:46:25.351Z,41.60
2018-10-17T14:48:53.338Z,42.10
2018-10-17T14:51:21.381Z,42.10
2018-10-17T14:53:49.521Z,43.10
2018-10-17T14:56:17.619Z,43.50
2018-10-17T14:58:45.559Z,43.80
2018-10-17T15:01:13.579Z,44.50
2018-10-17T15:03:41.518Z,44.60
2018-10-17T15:06:09.516Z,45.40
2018-10-17T15:08:37.454Z,45.70
2018-10-17T15:11:05.313Z,46.10
2018-10-17T15:13:33.360Z,46.70
2018-10-17T15:16:01.289Z,47.30
2018-10-17T15:18:29.346Z,47.70
2018-10-17T15:20:57.223Z,48.20
2018-10-17T15:23:27.130Z,48.50
2018-10-17T15:25:55.054Z,48.80
2018-10-17T15:28:23.331Z,49.20
2018-10-17T15:30:51.351Z,49.70
2018-10-17T15:33:19.348Z,50.20
2018-10-17T15:35:47.381Z,50.30
2018-10-17T15:38:15.456Z,50.70
2018-10-17T15:40:43.364Z,50.90
2018-10-17T15:43:11.531Z,51.10
2018-10-17T15:45:39.369Z,51.00
2018-10-17T15:48:07.508Z,51.50
2018-10-17T15:50:35.442Z,51.60
2018-10-17T15:53:03.529Z,51.70
2018-10-17T15:55:33.411Z,52.40
2018-10-17T15:58:01.707Z,52.70
2018-10-17T16:00:29.705Z,52.80
2018-10-17T16:02:57.685Z,53.10
2018-10-17T16:05:25.911Z,53.40
2018-10-17T16:07:53.898Z,54.20
2018-10-17T16:10:21.861Z,54.10
2018-10-17T16:12:49.939Z,54.50
2018-10-17T16:15:17.820Z,54.90
2018-10-17T16:17:45.823Z,55.20
2018-10-17T16:20:13.952Z,55.70
2018-10-17T16:22:42.072Z,56.20
2018-10-17T16:25:10.035Z,56.50
2018-10-17T16:27:38.151Z,57.00
2018-10-17T16:30:08.787Z,57.30
2018-10-17T16:32:36.813Z,57.80
2018-10-17T16:35:07.710Z,58.20
2018-10-17T16:37:36.493Z,58.40
2018-10-17T16:40:08.201Z,58.70
2018-10-17T16:42:36.038Z,59.90
2018-10-17T16:45:04.816Z,59.60
2018-10-17T16:47:33.032Z,60.10
2018-10-17T16:50:01.213Z,60.70
2018-10-17T16:52:29.216Z,61.10
2018-10-17T16:54:57.210Z,61.60
2018-10-17T16:57:28.391Z,62.20
2018-10-17T16:59:56.415Z,62.60
2018-10-17T17:02:28.349Z,62.80
2018-10-17T17:04:57.505Z,63.50
2018-10-17T17:07:36.002Z,63.80
2018-10-17T17:10:04.767Z,64.60
2018-10-17T17:12:36.388Z,65.00
2018-10-17T17:15:04.163Z,65.80
2018-10-17T17:17:31.710Z,66.10
2018-10-17T17:19:59.281Z,66.60
2018-10-17T17:22:27.010Z,67.00
2018-10-17T17:24:54.702Z,67.80
2018-10-17T17:27:23.101Z,68.00
2018-10-17T17:29:51.506Z,68.60
2018-10-17T17:32:19.713Z,68.70
2018-10-17T17:34:47.910Z,69.00
2018-10-17T17:37:16.097Z,70.50
2018-10-17T17:39:44.299Z,70.40
2018-10-17T17:42:12.590Z,71.10
2018-10-17T17:44:41.621Z,71.40
2018-10-17T17:47:10.370Z,72.00
2018-10-17T17:49:38.411Z,72.90
2018-10-17T17:52:06.651Z,73.40
2018-10-17T17:54:35.983Z,73.40
2018-10-17T17:57:04.192Z,73.80
2018-10-17T17:59:32.292Z,74.20
2018-10-17T18:02:00.312Z,75.00
2018-10-17T18:04:28.657Z,75.50
2018-10-17T18:06:56.823Z,76.40
2018-10-17T18:09:25.022Z,77.70
2018-10-17T18:11:56.422Z,77.30
2018-10-17T18:14:24.536Z,78.00
2018-10-17T18:16:52.479Z,78.70
2018-10-17T18:19:20.487Z,79.10
2018-10-17T18:21:48.544Z,79.60
2018-10-17T18:24:16.885Z,79.40
2018-10-17T18:26:44.929Z,79.40
2018-10-17T18:29:12.966Z,79.90
2018-10-17T18:31:40.984Z,79.90
2018-10-17T18:34:17.724Z,80.40
2018-10-17T18:36:45.785Z,80.20
2018-10-17T18:39:14.039Z,80.50
2018-10-17T18:41:42.413Z,81.30
2018-10-17T18:44:11.485Z,81.90
2018-10-17T18:46:39.547Z,82.60
2018-10-17T18:49:07.600Z,82.50
2018-10-17T18:51:35.973Z,82.20
2018-10-17T18:54:04.350Z,82.00
2018-10-17T18:56:32.406Z,82.00
2018-10-17T18:59:00.431Z,81.80
2018-10-17T19:01:28.651Z,81.60
2018-10-17T19:03:56.767Z,81.50
2018-10-17T19:06:24.981Z,81.70
2018-10-17T19:08:53.110Z,81.80
2018-10-17T19:11:21.267Z,82.30
2018-10-17T19:13:49.341Z,82.70
2018-10-17T19:16:17.729Z,83.50
2018-10-17T19:18:45.997Z,83.70
2018-10-17T19:21:14.148Z,84.10
2018-10-17T19:23:42.222Z,84.30
2018-10-17T19:26:10.295Z,85.40
2018-10-17T19:28:38.663Z,85.30
2018-10-17T19:31:07.105Z,86.10
2018-10-17T19:33:35.252Z,86.50
2018-10-17T19:36:03.396Z,87.10
2018-10-17T19:38:31.469Z,87.50
2018-10-17T19:40:59.621Z,88.50
2018-10-17T19:43:27.675Z,87.90
2018-10-17T19:45:55.847Z,87.50
2018-10-17T19:48:23.856Z,87.50
2018-10-17T19:50:51.968Z,87.30
2018-10-17T19:53:20.142Z,86.70
2018-10-17T19:55:50.833Z,86.70
2018-10-17T19:58:19.116Z,86.80
2018-10-17T20:00:47.368Z,86.60
2018-10-17T20:03:15.617Z,86.70
2018-10-17T20:05:43.895Z,87.20
2018-10-17T20:08:11.987Z,87.80
2018-10-17T20:10:41.011Z,88.60
2018-10-17T20:13:09.219Z,88.30
2018-10-17T20:15:37.253Z,89.00
2018-10-17T20:18:05.389Z,89.20
2018-10-17T20:20:33.358Z,89.30
2018-10-17T20:23:01.407Z,89.80
2018-10-17T20:25:29.440Z,90.00
2018-10-17T20:27:57.423Z,90.00
2018-10-17T20:30:25.500Z,90.00
2018-10-17T20:32:53.540Z,90.10
2018-10-17T20:35:21.529Z,90.50
2018-10-17T20:37:49.578Z,90.10
2018-10-17T20:40:17.546Z,90.10
2018-10-17T20:42:45.630Z,90.20
2018-10-17T20:45:13.695Z,90.10
2018-10-17T20:47:41.585Z,90.30
2018-10-17T20:50:09.622Z,90.30
2018-10-17T20:52:37.991Z,90.40
2018-10-17T20:55:06.098Z,90.30
2018-10-17T20:57:34.171Z,90.30
2018-10-17T21:00:02.306Z,90.60
2018-10-17T21:02:30.252Z,90.70
2018-10-17T21:04:58.088Z,90.90
2018-10-17T21:07:26.019Z,91.20
2018-10-17T21:09:54.308Z,91.20
2018-10-17T21:12:22.280Z,91.90
2018-10-17T21:14:50.300Z,92.20
2018-10-17T21:17:18.277Z,92.60
2018-10-17T21:19:46.513Z,91.90
2018-10-17T21:22:14.487Z,91.40
2018-10-17T21:24:42.442Z,91.20
2018-10-17T21:27:10.481Z,91.80
2018-10-17T21:29:38.499Z,91.20
2018-10-17T21:32:06.505Z,91.90
2018-10-17T21:34:34.419Z,92.00
2018-10-17T21:37:02.621Z,92.20
2018-10-17T21:39:30.570Z,92.50
2018-10-17T21:41:58.525Z,93.00
2018-10-17T21:44:29.611Z,92.80
2018-10-17T21:46:57.584Z,93.20
2018-10-17T21:49:25.667Z,92.70
2018-10-17T21:51:57.304Z,92.50
2018-10-17T21:54:25.409Z,92.30
2018-10-17T21:56:53.342Z,92.30
2018-10-17T21:59:23.332Z,92.40
2018-10-17T22:01:51.344Z,92.20
2018-10-17T22:04:19.305Z,92.20
2018-10-17T22:06:47.437Z,92.00
2018-10-17T22:09:15.372Z,91.90
2018-10-17T22:11:43.520Z,91.80
2018-10-17T22:14:11.591Z,92.10
2018-10-17T22:16:45.139Z,92.10
2018-10-17T22:19:13.398Z,91.80
2018-10-17T22:21:42.138Z,91.80
2018-10-17T22:24:10.170Z,91.50
2018-10-17T22:26:38.198Z,91.30
2018-10-17T22:29:06.214Z,91.90
2018-10-17T22:31:34.077Z,92.10
2018-10-17T22:34:02.184Z,92.10
2018-10-17T22:36:30.223Z,92.30
2018-10-17T22:38:58.249Z,92.10
2018-10-17T22:41:26.201Z,91.70
2018-10-17T22:43:54.245Z,91.40
2018-10-17T22:46:22.306Z,91.90
2018-10-17T22:48:50.235Z,92.20
2018-10-17T22:51:18.114Z,92.20
2018-10-17T22:53:46.092Z,92.30
2018-10-17T22:56:14.092Z,92.10
2018-10-17T22:58:42.009Z,92.30
2018-10-17T23:01:10.041Z,92.40
2018-10-17T23:03:38.026Z,92.30
2018-10-17T23:06:05.996Z,92.40
2018-10-17T23:08:34.120Z,92.40
2018-10-17T23:11:02.034Z,92.60
2018-10-17T23:13:29.903Z,92.40
2018-10-17T23:15:58.007Z,92.00
2018-10-17T23:18:25.910Z,92.20
2018-10-17T23:20:53.789Z,92.40
2018-10-17T23:23:21.811Z,92.50
2018-10-17T23:25:49.812Z,92.60
2018-10-17T23:28:17.939Z,93.00
2018-10-17T23:30:45.902Z,93.40
2018-10-17T23:33:13.904Z,93.60
2018-10-17T23:35:41.966Z,93.60
2018-10-17T23:38:10.008Z,93.60
2018-10-17T23:40:37.943Z,93.60
2018-10-17T23:43:07.063Z,93.30
2018-10-17T23:45:34.932Z,93.40
2018-10-17T23:48:03.685Z,93.90
2018-10-17T23:50:31.777Z,94.00
2018-10-17T23:52:59.622Z,94.10
2018-10-17T23:55:27.581Z,94.00
2018-10-17T23:57:55.481Z,94.00
